Time;durP1;ratioP1;P1;durP2;ratioP2;P2;SDS_P1;SDS_P2;PMS_P1;PMS_P2;Temp;Humidity;BMP_temperature;BMP_pressure;BME280_temperature;BME280_humidity;BME280_pressure;Samples;Min_cycle;Max_cycle;Signal;HPM_P1;HPM_P2
2023/11/11 00:00:48;;;;;;;3.80;1.00;;;6.70;99.90;;;;;;5086804;28;20207;-74
2023/11/11 00:03:17;;;;;;;0.50;0.50;;;6.50;99.90;;;;;;5086834;28;20199;-75
2023/11/11 00:05:44;;;;;;;0.50;0.40;;;6.60;99.90;;;;;;5086346;28;20225;-75
2023/11/11 00:08:11;;;;;;;1.55;0.70;;;6.50;99.90;;;;;;5085958;28;20204;-75
2023/11/11 00:10:39;;;;;;;0.95;0.75;;;6.60;99.90;;;;;;5086044;28;20272;-75
2023/11/11 00:13:06;;;;;;;0.45;0.38;;;6.50;99.90;;;;;;5086501;28;20298;-75
2023/11/11 00:15:35;;;;;;;0.40;0.40;;;6.60;99.90;;;;;;5086242;28;20237;-74
2023/11/11 00:18:02;;;;;;;0.70;0.70;;;6.50;99.90;;;;;;5085863;28;20222;-75
2023/11/11 00:20:28;;;;;;;0.40;0.30;;;6.40;99.90;;;;;;5086878;28;20281;-75
2023/11/11 00:22:55;;;;;;;0.40;0.30;;;6.50;99.90;;;;;;5086050;28;20195;-75
2023/11/11 00:25:23;;;;;;;0.77;0.75;;;6.40;99.90;;;;;;5085460;28;20199;-75
2023/11/11 00:27:52;;;;;;;0.55;0.47;;;6.50;99.90;;;;;;5085818;28;20203;-75
2023/11/11 00:30:19;;;;;;;0.73;0.70;;;6.50;99.90;;;;;;5086579;28;20291;-75
2023/11/11 00:32:50;;;;;;;0.63;0.63;;;6.50;99.90;;;;;;5086577;28;20639;-75
2023/11/11 00:35:18;;;;;;;0.82;0.82;;;6.50;99.90;;;;;;5086071;28;20682;-75
2023/11/11 00:37:46;;;;;;;1.13;0.55;;;6.40;99.90;;;;;;5085522;28;20221;-75
2023/11/11 00:40:13;;;;;;;0.68;0.52;;;6.40;99.90;;;;;;5086559;28;20643;-74
2023/11/11 00:42:40;;;;;;;0.98;0.98;;;6.60;99.90;;;;;;5086302;28;20240;-75
2023/11/11 00:45:09;;;;;;;0.60;0.60;;;6.70;99.90;;;;;;5086103;28;20207;-75
2023/11/11 00:47:36;;;;;;;0.50;0.40;;;6.60;99.90;;;;;;5086080;28;20205;-74
2023/11/11 00:50:09;;;;;;;0.40;0.32;;;6.60;99.90;;;;;;5085254;28;20227;-75
2023/11/11 00:52:36;;;;;;;0.80;0.50;;;6.50;99.90;;;;;;5086409;28;20269;-75
2023/11/11 00:55:03;;;;;;;0.60;0.60;;;6.50;99.90;;;;;;5085917;28;20231;-75
2023/11/11 00:57:30;;;;;;;0.40;0.40;;;6.40;99.90;;;;;;5088569;28;20196;-75
2023/11/11 00:59:57;;;;;;;1.65;0.60;;;6.40;99.90;;;;;;5089802;28;20289;-75
2023/11/11 01:02:25;;;;;;;0.60;0.60;;;6.40;99.90;;;;;;5089234;28;20207;-75
2023/11/11 01:04:53;;;;;;;0.50;0.50;;;6.30;99.90;;;;;;5089430;28;20616;-75
2023/11/11 01:07:21;;;;;;;0.57;0.50;;;6.40;99.90;;;;;;5089315;28;20211;-74
2023/11/11 01:09:50;;;;;;;0.77;0.50;;;6.30;99.90;;;;;;5090038;28;20225;-75
2023/11/11 01:12:19;;;;;;;1.15;0.60;;;6.40;99.90;;;;;;5089746;28;20198;-75
2023/11/11 01:14:46;;;;;;;0.60;0.40;;;6.40;99.90;;;;;;5089467;28;20196;-75
2023/11/11 01:17:13;;;;;;;1.27;0.43;;;6.50;99.90;;;;;;5089453;28;20202;-75
2023/11/11 01:19:41;;;;;;;0.70;0.52;;;6.50;99.90;;;;;;5089001;28;20219;-75
2023/11/11 01:22:09;;;;;;;0.65;0.65;;;6.50;99.90;;;;;;5089609;28;20278;-75
2023/11/11 01:24:40;;;;;;;0.60;0.57;;;6.40;99.90;;;;;;5088321;28;20513;-75
2023/11/11 01:27:07;;;;;;;1.08;0.98;;;6.40;99.90;;;;;;5089122;28;20191;-74
2023/11/11 01:29:34;;;;;;;1.13;1.02;;;6.30;99.90;;;;;;5088214;28;20222;-75
2023/11/11 01:32:01;;;;;;;0.57;0.38;;;6.30;99.90;;;;;;5089606;28;20223;-74
2023/11/11 01:34:28;;;;;;;0.30;0.20;;;6.40;99.90;;;;;;5089114;28;20278;-75
2023/11/11 01:36:56;;;;;;;0.60;0.30;;;6.40;99.90;;;;;;5088732;28;20286;-75
2023/11/11 01:39:23;;;;;;;0.40;0.30;;;6.40;99.90;;;;;;5088628;28;20195;-75
2023/11/11 01:41:50;;;;;;;0.30;0.30;;;6.40;99.90;;;;;;5088986;28;20201;-75
2023/11/11 01:44:16;;;;;;;0.38;0.25;;;6.30;99.90;;;;;;5088382;28;20205;-75
2023/11/11 01:46:44;;;;;;;0.35;0.30;;;6.40;99.90;;;;;;5088651;28;20191;-75
2023/11/11 01:49:11;;;;;;;0.70;0.70;;;6.40;99.90;;;;;;5088039;28;20200;-75
2023/11/11 01:51:37;;;;;;;0.50;0.40;;;6.40;99.90;;;;;;5088616;28;20627;-75
2023/11/11 01:54:06;;;;;;;0.40;0.30;;;6.40;99.90;;;;;;5088750;28;20198;-75
2023/11/11 01:56:33;;;;;;;0.40;0.30;;;6.50;99.90;;;;;;5079798;28;20222;-75
2023/11/11 01:59:00;;;;;;;0.40;0.30;;;6.60;99.90;;;;;;5087696;28;20211;-75
2023/11/11 02:01:26;;;;;;;1.15;0.60;;;6.50;99.90;;;;;;5087993;28;20203;-75
2023/11/11 02:03:53;;;;;;;0.50;0.40;;;6.50;99.90;;;;;;5088562;28;20199;-75
2023/11/11 02:06:20;;;;;;;0.50;0.30;;;6.50;99.90;;;;;;5088156;28;20195;-75
2023/11/11 02:08:48;;;;;;;0.80;0.50;;;6.50;99.90;;;;;;5086842;28;20754;-75
2023/11/11 02:11:17;;;;;;;0.40;0.30;;;6.40;99.90;;;;;;5087799;28;20225;-74
2023/11/11 02:13:45;;;;;;;0.50;0.30;;;6.40;99.90;;;;;;5088279;28;20226;-75
2023/11/11 02:16:15;;;;;;;0.40;0.40;;;6.40;99.90;;;;;;5088474;28;20195;-74
2023/11/11 02:18:44;;;;;;;0.40;0.40;;;6.40;99.90;;;;;;5087733;28;20507;-75
2023/11/11 02:21:11;;;;;;;0.50;0.50;;;6.40;99.90;;;;;;5088083;28;20202;-75
2023/11/11 02:23:41;;;;;;;1.10;0.80;;;6.40;99.90;;;;;;5087944;28;20199;-75
2023/11/11 02:26:10;;;;;;;0.65;0.65;;;6.50;99.90;;;;;;5087752;28;20203;-74
2023/11/11 02:28:38;;;;;;;1.90;1.10;;;6.40;99.90;;;;;;5087559;28;20249;-75
2023/11/11 02:31:06;;;;;;;0.40;0.30;;;6.40;99.90;;;;;;5079825;28;20199;-75
2023/11/11 02:33:35;;;;;;;0.30;0.20;;;6.30;99.90;;;;;;5087981;28;20518;-75
2023/11/11 02:36:06;;;;;;;0.30;0.20;;;6.20;99.90;;;;;;5088348;28;20556;-74
2023/11/11 02:38:33;;;;;;;0.30;0.20;;;6.10;99.90;;;;;;5086908;28;20218;-74
2023/11/11 02:41:02;;;;;;;0.30;0.20;;;6.10;99.90;;;;;;5087717;28;20231;-74
2023/11/11 02:43:29;;;;;;;0.30;0.20;;;5.90;99.90;;;;;;5087761;28;20196;-74
2023/11/11 02:45:58;;;;;;;0.30;0.10;;;5.70;99.90;;;;;;5087707;28;20199;-74
2023/11/11 02:48:27;;;;;;;0.30;0.25;;;5.70;99.90;;;;;;5082785;28;20300;-74
2023/11/11 02:50:55;;;;;;;0.40;0.20;;;5.60;99.90;;;;;;5086854;28;20206;-75
2023/11/11 02:53:22;;;;;;;0.40;0.22;;;5.60;99.90;;;;;;5087689;28;20239;-74
2023/11/11 02:55:49;;;;;;;0.30;0.30;;;5.70;99.90;;;;;;5087202;28;20260;-75
2023/11/11 02:58:17;;;;;;;0.80;0.38;;;5.70;99.90;;;;;;5087207;28;20210;-74
2023/11/11 03:00:44;;;;;;;0.40;0.40;;;5.80;99.90;;;;;;5087595;28;20214;-75
2023/11/11 03:03:11;;;;;;;0.93;0.35;;;5.80;99.90;;;;;;5087530;28;20191;-74
2023/11/11 03:05:38;;;;;;;1.60;0.43;;;5.80;99.90;;;;;;5086983;28;20746;-75
2023/11/11 03:08:05;;;;;;;1.00;0.90;;;5.90;99.90;;;;;;5086828;28;20324;-74
2023/11/11 03:10:32;;;;;;;0.40;0.40;;;5.90;99.90;;;;;;5087207;28;20203;-75
2023/11/11 03:12:59;;;;;;;0.50;0.50;;;5.90;99.90;;;;;;5087240;28;20265;-75
2023/11/11 03:15:28;;;;;;;0.60;0.43;;;5.90;99.90;;;;;;5086903;28;20712;-75
2023/11/11 03:17:57;;;;;;;0.40;0.40;;;6.00;99.90;;;;;;5086444;28;20274;-75
2023/11/11 03:20:27;;;;;;;0.40;0.40;;;6.00;99.90;;;;;;5087012;28;20266;-74
2023/11/11 03:22:57;;;;;;;1.15;0.82;;;6.10;99.90;;;;;;5078548;28;20195;-74
2023/11/11 03:25:24;;;;;;;0.30;0.30;;;6.10;99.90;;;;;;5085874;28;20191;-74
2023/11/11 03:27:52;;;;;;;1.42;1.27;;;6.10;99.90;;;;;;5086313;28;20208;-74
2023/11/11 03:30:20;;;;;;;0.60;0.60;;;6.20;99.90;;;;;;5086480;28;20668;-74
2023/11/11 03:32:49;;;;;;;1.13;0.80;;;6.20;99.90;;;;;;5087213;28;20207;-74
2023/11/11 03:35:17;;;;;;;0.60;0.52;;;6.20;99.90;;;;;;5087264;28;20230;-75
2023/11/11 03:37:45;;;;;;;0.50;0.50;;;6.20;99.90;;;;;;5086591;28;20240;-74
2023/11/11 03:40:13;;;;;;;0.88;0.52;;;6.20;99.90;;;;;;5086721;28;20689;-75
2023/11/11 03:42:41;;;;;;;0.50;0.50;;;6.10;99.90;;;;;;5086850;28;20195;-74
2023/11/11 03:45:10;;;;;;;1.05;0.63;;;6.20;99.90;;;;;;5085736;28;20203;-75
2023/11/11 03:47:39;;;;;;;0.52;0.50;;;6.10;99.90;;;;;;5086539;28;20206;-75
2023/11/11 03:50:09;;;;;;;0.60;0.60;;;6.20;99.90;;;;;;5087023;28;20252;-75
2023/11/11 03:52:37;;;;;;;0.50;0.50;;;6.20;99.90;;;;;;5086742;28;20595;-75
2023/11/11 03:55:05;;;;;;;0.65;0.65;;;6.20;99.90;;;;;;5086291;28;20195;-75
2023/11/11 03:57:32;;;;;;;0.52;0.50;;;6.20;99.90;;;;;;5077442;28;20191;-75
2023/11/11 03:59:59;;;;;;;1.52;1.42;;;6.20;99.90;;;;;;5085323;28;20203;-75
2023/11/11 04:02:26;;;;;;;0.77;0.50;;;6.20;99.90;;;;;;5086170;28;20572;-75
2023/11/11 04:04:53;;;;;;;0.68;0.40;;;6.20;99.90;;;;;;5084562;28;20206;-74
2023/11/11 04:07:21;;;;;;;0.40;0.40;;;6.20;99.90;;;;;;5085953;28;20217;-75
2023/11/11 04:09:48;;;;;;;0.60;0.60;;;6.20;99.90;;;;;;5084290;28;20229;-75
2023/11/11 04:12:15;;;;;;;1.02;0.77;;;6.20;99.90;;;;;;5085253;28;20192;-75
2023/11/11 04:14:42;;;;;;;0.68;0.50;;;6.20;99.90;;;;;;5086160;28;20280;-75
2023/11/11 04:17:08;;;;;;;0.50;0.32;;;6.20;99.90;;;;;;5086171;28;20286;-76
2023/11/11 04:19:38;;;;;;;1.13;0.73;;;6.10;99.90;;;;;;5086232;28;20195;-75
2023/11/11 04:22:04;;;;;;;0.60;0.57;;;6.10;99.90;;;;;;5086424;28;20225;-75
2023/11/11 04:24:33;;;;;;;0.55;0.50;;;6.10;99.90;;;;;;5085718;28;20286;-75
2023/11/11 04:27:00;;;;;;;1.25;0.60;;;6.00;99.90;;;;;;5086121;28;20233;-75
2023/11/11 04:29:27;;;;;;;1.90;0.75;;;6.10;99.90;;;;;;5085506;28;20294;-74
2023/11/11 04:31:54;;;;;;;0.63;0.63;;;6.10;99.90;;;;;;5088975;28;20476;-74
2023/11/11 04:34:21;;;;;;;0.50;0.50;;;6.10;99.90;;;;;;5090263;28;20763;-74
2023/11/11 04:36:48;;;;;;;0.93;0.38;;;6.10;99.90;;;;;;5090046;28;20191;-74
2023/11/11 04:39:15;;;;;;;1.25;0.88;;;6.10;99.90;;;;;;5089486;28;20202;-74
2023/11/11 04:41:43;;;;;;;0.70;0.60;;;6.00;99.90;;;;;;5090173;28;20231;-74
2023/11/11 04:44:10;;;;;;;0.50;0.50;;;6.10;99.90;;;;;;5090142;28;20195;-74
2023/11/11 04:46:38;;;;;;;0.50;0.50;;;6.10;99.90;;;;;;5089914;28;20191;-74
2023/11/11 04:49:04;;;;;;;1.00;1.00;;;6.10;99.90;;;;;;5089340;28;20199;-75
2023/11/11 04:51:31;;;;;;;0.50;0.50;;;6.00;99.90;;;;;;5090007;28;20199;-75
2023/11/11 04:53:58;;;;;;;0.63;0.63;;;6.00;99.90;;;;;;5089761;28;20209;-75
2023/11/11 04:56:25;;;;;;;0.75;0.75;;;6.00;99.90;;;;;;5090227;28;20203;-74
2023/11/11 04:58:53;;;;;;;1.02;0.93;;;6.00;99.90;;;;;;5089270;28;20618;-74
2023/11/11 05:01:20;;;;;;;0.75;0.75;;;5.90;99.90;;;;;;5089658;28;20207;-75
2023/11/11 05:03:48;;;;;;;0.82;0.82;;;5.90;99.90;;;;;;5089784;28;20215;-75
2023/11/11 05:06:17;;;;;;;2.25;2.08;;;6.00;99.90;;;;;;5089116;28;20203;-74
2023/11/11 05:08:45;;;;;;;1.25;1.15;;;6.00;99.90;;;;;;5089452;28;20199;-75
2023/11/11 05:11:12;;;;;;;1.70;1.55;;;6.00;99.90;;;;;;5089490;28;20206;-74
2023/11/11 05:13:44;;;;;;;0.75;0.73;;;6.00;99.90;;;;;;5089390;28;20782;-74
2023/11/11 05:16:24;;;;;;;0.73;0.73;;;6.10;99.90;;;;;;5089082;28;20200;-74
2023/11/11 05:18:52;;;;;;;0.52;0.52;;;6.00;99.90;;;;;;5088430;28;20466;-74
2023/11/11 05:21:19;;;;;;;0.98;0.70;;;6.10;99.90;;;;;;5089528;28;20550;-74
2023/11/11 05:23:46;;;;;;;1.15;1.00;;;6.00;99.90;;;;;;5088477;28;20195;-74
2023/11/11 05:26:13;;;;;;;1.25;1.08;;;5.90;99.90;;;;;;5089277;28;20210;-75
2023/11/11 05:28:41;;;;;;;1.13;0.65;;;6.00;99.90;;;;;;5088577;28;20206;-75
2023/11/11 05:31:09;;;;;;;0.70;0.70;;;6.00;99.90;;;;;;5089121;28;20203;-75
2023/11/11 05:33:37;;;;;;;0.70;0.60;;;5.90;99.90;;;;;;5089256;28;20199;-75
2023/11/11 05:36:07;;;;;;;0.82;0.77;;;6.00;99.90;;;;;;5089071;28;20207;-75
2023/11/11 05:38:34;;;;;;;0.80;0.80;;;6.00;99.90;;;;;;5088617;28;20221;-75
2023/11/11 05:41:00;;;;;;;1.10;1.00;;;5.90;99.90;;;;;;5089046;28;20215;-74
2023/11/11 05:43:27;;;;;;;1.00;0.90;;;5.90;99.90;;;;;;5087540;28;20195;-75
2023/11/11 05:45:54;;;;;;;1.55;1.45;;;5.90;99.90;;;;;;5088310;28;20631;-74
2023/11/11 05:48:21;;;;;;;3.22;1.10;;;5.90;99.90;;;;;;5088204;28;20624;-75
2023/11/11 05:50:49;;;;;;;1.20;1.00;;;5.90;99.90;;;;;;5088809;28;20203;-75
2023/11/11 05:53:16;;;;;;;1.25;1.13;;;5.90;99.90;;;;;;5088906;28;20199;-75
2023/11/11 05:55:42;;;;;;;1.40;1.15;;;5.90;99.90;;;;;;5088423;28;20202;-75
2023/11/11 05:58:09;;;;;;;0.70;0.70;;;5.80;99.90;;;;;;5088350;28;20699;-74
2023/11/11 06:00:37;;;;;;;1.45;1.35;;;5.80;99.90;;;;;;5088002;28;20192;-74
2023/11/11 06:03:04;;;;;;;1.35;1.25;;;5.80;99.90;;;;;;5088523;28;20203;-74
2023/11/11 06:05:34;;;;;;;1.05;0.98;;;5.60;99.90;;;;;;5088411;28;20202;-74
2023/11/11 06:08:02;;;;;;;2.75;1.08;;;5.70;99.90;;;;;;5088046;28;20201;-74
2023/11/11 06:10:29;;;;;;;1.13;0.98;;;5.70;99.90;;;;;;5088911;28;20565;-74
2023/11/11 06:12:57;;;;;;;1.38;0.95;;;5.60;99.90;;;;;;5087763;28;20218;-74
2023/11/11 06:15:25;;;;;;;1.50;1.40;;;5.60;99.90;;;;;;5088101;28;20553;-74
2023/11/11 06:17:51;;;;;;;1.20;1.10;;;5.60;99.90;;;;;;5087799;28;20207;-74
2023/11/11 06:20:19;;;;;;;0.90;0.90;;;5.60;99.90;;;;;;5088408;28;20290;-74
2023/11/11 06:22:47;;;;;;;1.40;1.30;;;5.70;99.90;;;;;;5088632;28;20233;-74
2023/11/11 06:25:15;;;;;;;1.02;0.93;;;5.60;99.90;;;;;;5088358;28;20204;-74
2023/11/11 06:27:44;;;;;;;1.77;1.38;;;5.60;99.90;;;;;;5087030;28;20195;-74
2023/11/11 06:30:11;;;;;;;1.73;0.95;;;5.50;99.90;;;;;;5087877;28;20206;-75
2023/11/11 06:32:38;;;;;;;0.90;0.68;;;5.70;99.90;;;;;;5088069;28;20199;-74
2023/11/11 06:35:07;;;;;;;1.90;1.20;;;5.70;99.90;;;;;;5088227;28;20576;-75
2023/11/11 06:37:35;;;;;;;1.08;0.98;;;5.70;99.90;;;;;;5087265;28;20721;-75
2023/11/11 06:40:03;;;;;;;1.50;1.40;;;5.60;99.90;;;;;;5087384;28;20245;-74
2023/11/11 06:42:31;;;;;;;0.80;0.80;;;5.60;99.90;;;;;;5088027;28;20226;-74
2023/11/11 06:44:58;;;;;;;3.75;1.33;;;5.60;99.90;;;;;;5087796;28;20214;-74
2023/11/11 06:47:24;;;;;;;0.50;0.50;;;5.70;99.90;;;;;;5087284;28;20533;-74
2023/11/11 06:49:52;;;;;;;0.80;0.80;;;5.70;99.90;;;;;;5087512;28;20740;-74
2023/11/11 06:52:19;;;;;;;1.17;1.17;;;5.80;99.90;;;;;;5087532;28;20195;-74
2023/11/11 06:54:46;;;;;;;0.88;0.85;;;5.80;99.90;;;;;;5086638;28;20210;-74
2023/11/11 06:57:13;;;;;;;0.68;0.68;;;5.80;99.90;;;;;;5087096;28;20195;-73
2023/11/11 06:59:41;;;;;;;1.02;0.95;;;5.90;99.90;;;;;;5087091;28;20237;-73
2023/11/11 07:02:12;;;;;;;0.70;0.70;;;5.90;99.90;;;;;;5087254;28;20230;-75
2023/11/11 07:04:39;;;;;;;0.60;0.60;;;5.90;99.90;;;;;;5087344;28;20199;-75
2023/11/11 07:07:07;;;;;;;0.80;0.70;;;6.00;99.90;;;;;;5086878;28;20660;-76
2023/11/11 07:09:38;;;;;;;1.30;1.00;;;6.00;99.90;;;;;;5086991;28;20191;-73
2023/11/11 07:12:05;;;;;;;1.02;0.50;;;6.00;99.90;;;;;;5087335;28;20231;-74
2023/11/11 07:14:32;;;;;;;0.60;0.60;;;6.10;99.90;;;;;;5086871;28;20216;-75
2023/11/11 07:17:00;;;;;;;0.63;0.63;;;6.10;99.90;;;;;;5087197;28;20199;-74
2023/11/11 07:19:27;;;;;;;0.95;0.57;;;6.10;99.90;;;;;;5086451;28;20511;-75
2023/11/11 07:21:53;;;;;;;1.00;0.60;;;6.00;99.90;;;;;;5086517;28;20246;-74
2023/11/11 07:24:22;;;;;;;3.00;1.20;;;6.00;99.90;;;;;;5086084;28;20666;-75
2023/11/11 07:26:49;;;;;;;0.90;0.63;;;5.90;99.90;;;;;;5087052;28;20196;-75
2023/11/11 07:29:16;;;;;;;0.90;0.90;;;5.90;99.90;;;;;;5086341;28;20290;-75
2023/11/11 07:31:44;;;;;;;0.40;0.32;;;5.90;99.90;;;;;;5086933;28;20201;-75
2023/11/11 07:34:12;;;;;;;0.70;0.45;;;5.80;99.90;;;;;;5086330;28;20292;-75
2023/11/11 07:36:39;;;;;;;0.50;0.50;;;5.90;99.90;;;;;;5086948;28;20484;-75
2023/11/11 07:39:07;;;;;;;1.48;0.68;;;5.80;99.90;;;;;;5086446;28;20202;-76
2023/11/11 07:41:33;;;;;;;0.60;0.47;;;5.90;99.90;;;;;;5086763;28;20314;-75
2023/11/11 07:44:04;;;;;;;0.80;0.80;;;5.80;99.90;;;;;;5086686;28;20674;-75
2023/11/11 07:46:32;;;;;;;1.33;0.65;;;5.90;99.90;;;;;;5086756;28;20657;-75
2023/11/11 07:48:59;;;;;;;0.60;0.60;;;5.90;99.90;;;;;;5085447;28;20203;-75
2023/11/11 07:51:28;;;;;;;0.50;0.50;;;5.90;99.90;;;;;;5086795;28;20298;-75
2023/11/11 07:53:54;;;;;;;1.27;1.02;;;5.90;99.90;;;;;;5086710;28;20202;-75
2023/11/11 07:56:21;;;;;;;1.23;1.23;;;6.00;99.90;;;;;;5086727;28;20203;-76
2023/11/11 07:58:52;;;;;;;0.98;0.80;;;5.90;99.90;;;;;;5085960;28;20199;-75
2023/11/11 08:01:21;;;;;;;0.60;0.55;;;6.00;99.90;;;;;;5078479;28;20615;-75
2023/11/11 08:03:47;;;;;;;0.65;0.50;;;5.90;99.90;;;;;;5086817;28;20633;-76
2023/11/11 08:06:14;;;;;;;0.95;0.73;;;6.00;99.90;;;;;;5087976;28;20221;-75
2023/11/11 08:08:44;;;;;;;1.30;1.20;;;6.10;99.90;;;;;;5090281;28;20192;-75
2023/11/11 08:11:12;;;;;;;3.25;1.05;;;6.10;99.90;;;;;;5090738;28;20210;-75
2023/11/11 08:13:39;;;;;;;2.15;0.90;;;6.10;99.90;;;;;;5090542;28;20203;-76
2023/11/11 08:16:06;;;;;;;1.20;1.10;;;6.30;99.90;;;;;;5090141;28;20191;-75
2023/11/11 08:18:34;;;;;;;1.98;0.98;;;6.40;99.90;;;;;;5090047;28;20734;-75
2023/11/11 08:21:01;;;;;;;1.05;0.95;;;6.30;99.90;;;;;;5090552;28;20280;-75
2023/11/11 08:23:28;;;;;;;0.85;0.65;;;6.40;99.90;;;;;;5089866;28;20227;-75
2023/11/11 08:25:56;;;;;;;0.82;0.80;;;6.50;99.90;;;;;;5090189;28;20197;-75
2023/11/11 08:28:23;;;;;;;0.70;0.70;;;6.70;99.90;;;;;;5090057;28;20202;-75
2023/11/11 08:30:50;;;;;;;0.90;0.80;;;6.70;99.90;;;;;;5090594;28;20204;-75
2023/11/11 08:33:17;;;;;;;1.15;1.10;;;6.80;99.90;;;;;;5090503;28;20202;-75
2023/11/11 08:35:44;;;;;;;1.35;1.25;;;6.80;99.90;;;;;;5090390;28;20260;-75
2023/11/11 08:38:12;;;;;;;1.13;0.93;;;6.90;99.90;;;;;;5089887;28;20271;-76
2023/11/11 08:40:39;;;;;;;1.17;0.77;;;6.80;99.90;;;;;;5090087;28;20651;-75
2023/11/11 08:43:07;;;;;;;1.47;1.10;;;6.60;99.90;;;;;;5089711;28;20581;-75
2023/11/11 08:45:33;;;;;;;1.17;1.05;;;6.80;99.90;;;;;;5090063;28;20625;-75
2023/11/11 08:48:00;;;;;;;1.38;1.10;;;6.70;99.90;;;;;;5081360;28;20279;-75
2023/11/11 08:50:27;;;;;;;1.85;1.48;;;6.70;99.90;;;;;;5089844;28;20192;-75
2023/11/11 08:52:54;;;;;;;1.30;1.20;;;6.80;99.90;;;;;;5090435;28;20199;-75
2023/11/11 08:55:21;;;;;;;2.58;1.55;;;6.80;99.90;;;;;;5089496;28;20244;-75
2023/11/11 08:57:48;;;;;;;1.20;1.10;;;6.90;99.90;;;;;;5089394;28;20567;-75
2023/11/11 09:00:16;;;;;;;1.88;1.55;;;7.00;99.90;;;;;;5089807;28;20222;-75
2023/11/11 09:02:43;;;;;;;1.67;1.17;;;7.00;99.90;;;;;;5089753;28;20229;-76
2023/11/11 09:05:10;;;;;;;1.40;1.30;;;7.10;99.90;;;;;;5089595;28;20635;-75
2023/11/11 09:07:37;;;;;;;1.45;1.35;;;7.10;99.90;;;;;;5089605;28;20555;-75
2023/11/11 09:10:04;;;;;;;0.70;0.70;;;7.20;99.90;;;;;;5089042;28;20285;-74
2023/11/11 09:12:31;;;;;;;1.48;1.10;;;7.10;99.90;;;;;;5089531;28;21003;-75
2023/11/11 09:14:58;;;;;;;1.98;1.08;;;6.90;99.90;;;;;;5089733;28;20286;-74
2023/11/11 09:17:26;;;;;;;1.02;0.93;;;6.80;99.90;;;;;;5088705;28;20282;-75
2023/11/11 09:19:53;;;;;;;0.85;0.85;;;6.70;99.90;;;;;;5089710;28;20195;-75
2023/11/11 09:22:20;;;;;;;1.13;0.98;;;6.50;99.90;;;;;;5089252;28;20589;-75
2023/11/11 09:24:47;;;;;;;1.35;1.25;;;6.50;99.90;;;;;;5088119;28;20286;-75
2023/11/11 09:27:14;;;;;;;0.80;0.80;;;6.60;99.90;;;;;;5089459;28;20595;-75
2023/11/11 09:29:40;;;;;;;2.38;1.55;;;6.40;99.90;;;;;;5080393;28;20286;-75
2023/11/11 09:32:09;;;;;;;1.67;1.15;;;6.30;99.90;;;;;;5089438;28;20203;-75
2023/11/11 09:34:39;;;;;;;0.95;0.95;;;6.10;99.90;;;;;;5089269;28;20213;-75
2023/11/11 09:37:06;;;;;;;5.38;1.40;;;6.00;99.90;;;;;;5088704;28;20203;-75
2023/11/11 09:39:33;;;;;;;1.20;1.02;;;5.90;99.90;;;;;;5088810;28;20538;-74
2023/11/11 09:42:00;;;;;;;2.78;1.17;;;5.90;99.90;;;;;;5089132;28;20700;-75
2023/11/11 09:44:28;;;;;;;1.77;1.30;;;5.80;99.90;;;;;;5089033;28;20690;-74
2023/11/11 09:46:57;;;;;;;1.08;0.98;;;5.90;99.90;;;;;;5088881;28;20195;-75
2023/11/11 09:49:27;;;;;;;1.45;1.35;;;5.90;99.90;;;;;;5088269;28;20249;-75
2023/11/11 09:51:57;;;;;;;1.80;1.38;;;6.00;99.90;;;;;;5088242;28;20199;-75
2023/11/11 09:54:24;;;;;;;1.50;1.10;;;6.00;99.90;;;;;;5089038;28;20295;-75
2023/11/11 09:56:53;;;;;;;0.63;0.63;;;6.10;99.90;;;;;;5088686;28;20248;-74
2023/11/11 09:59:21;;;;;;;1.55;1.45;;;6.10;99.90;;;;;;5088488;28;20527;-74
2023/11/11 10:01:48;;;;;;;2.10;1.98;;;6.30;99.90;;;;;;5088424;28;20660;-74
2023/11/11 10:04:15;;;;;;;1.15;1.05;;;6.50;99.90;;;;;;5079732;28;20200;-74
2023/11/11 10:06:44;;;;;;;1.15;1.10;;;6.60;99.90;;;;;;5088635;28;20639;-74
2023/11/11 10:09:17;;;;;;;1.20;1.10;;;6.80;99.90;;;;;;5088248;28;20195;-74
2023/11/11 10:11:44;;;;;;;1.42;1.33;;;6.90;99.90;;;;;;5088639;28;20291;-74
2023/11/11 10:14:12;;;;;;;0.82;0.82;;;7.00;99.90;;;;;;5088357;28;20282;-74
2023/11/11 10:16:43;;;;;;;1.33;1.27;;;7.00;99.90;;;;;;5087541;28;20198;-74
2023/11/11 10:19:14;;;;;;;1.20;1.10;;;7.00;99.90;;;;;;5087854;28;20221;-75
2023/11/11 10:21:41;;;;;;;1.52;1.40;;;7.00;99.90;;;;;;5088477;28;20203;-75
2023/11/11 10:24:10;;;;;;;1.55;1.08;;;7.10;99.90;;;;;;5087166;28;20272;-74
2023/11/11 10:26:39;;;;;;;1.30;1.20;;;7.20;99.90;;;;;;5088048;28;20187;-74
2023/11/11 10:29:08;;;;;;;1.63;1.10;;;7.30;99.90;;;;;;5086610;28;20540;-74
2023/11/11 10:31:36;;;;;;;1.70;1.20;;;7.20;99.90;;;;;;5087870;28;20205;-74
2023/11/11 10:34:04;;;;;;;1.13;1.05;;;7.20;99.90;;;;;;5087897;28;20206;-74
2023/11/11 10:36:40;;;;;;;1.08;0.98;;;7.20;99.90;;;;;;5087725;28;20610;-74
2023/11/11 10:39:08;;;;;;;0.85;0.85;;;7.10;99.90;;;;;;5087464;28;20201;-74
2023/11/11 10:41:35;;;;;;;0.98;0.98;;;7.20;99.90;;;;;;5088261;28;20206;-74
2023/11/11 10:44:05;;;;;;;1.40;1.27;;;7.20;99.70;;;;;;5087805;28;20232;-74
2023/11/11 10:46:32;;;;;;;1.05;1.05;;;7.20;99.90;;;;;;5087829;28;20736;-74
2023/11/11 10:49:00;;;;;;;1.63;1.23;;;7.20;99.90;;;;;;5086986;28;20664;-74
2023/11/11 10:51:30;;;;;;;0.90;0.90;;;7.20;99.80;;;;;;5087840;28;20558;-74
2023/11/11 10:54:00;;;;;;;1.57;1.10;;;7.20;99.40;;;;;;5087445;28;20203;-75
2023/11/11 10:56:29;;;;;;;1.20;1.10;;;7.30;99.90;;;;;;5087468;28;20624;-74
2023/11/11 10:58:56;;;;;;;0.80;0.80;;;7.40;99.90;;;;;;5087084;28;20203;-73
2023/11/11 11:01:25;;;;;;;1.00;1.00;;;7.50;99.90;;;;;;5087625;28;20575;-73
2023/11/11 11:03:52;;;;;;;0.80;0.80;;;7.50;99.50;;;;;;5087426;28;20764;-74
2023/11/11 11:06:30;;;;;;;1.20;1.10;;;7.60;99.60;;;;;;5087620;28;20625;-74
2023/11/11 11:09:14;;;;;;;1.83;1.30;;;7.50;99.40;;;;;;5086386;28;20734;-74
2023/11/11 11:11:51;;;;;;;1.77;0.77;;;7.50;98.30;;;;;;5087405;28;20633;-74
2023/11/11 11:14:29;;;;;;;2.40;1.55;;;7.40;97.90;;;;;;5087477;28;21156;-74
2023/11/11 11:17:00;;;;;;;0.70;0.70;;;7.40;98.50;;;;;;5082513;28;20664;-74
2023/11/11 11:19:26;;;;;;;0.70;0.70;;;7.30;97.90;;;;;;5086099;28;21456;-74
2023/11/11 11:21:53;;;;;;;2.60;0.73;;;7.30;97.90;;;;;;5087305;28;20625;-74
2023/11/11 11:24:20;;;;;;;1.10;1.00;;;7.30;98.70;;;;;;5087017;28;20673;-74
2023/11/11 11:26:48;;;;;;;0.60;0.60;;;7.40;99.40;;;;;;5086798;28;20623;-75
2023/11/11 11:29:16;;;;;;;1.43;0.90;;;7.30;98.10;;;;;;5086386;28;20751;-74
2023/11/11 11:32:07;;;;;;;1.57;1.47;;;7.20;98.50;;;;;;5077935;28;20623;-73
2023/11/11 11:34:34;;;;;;;0.95;0.75;;;7.30;98.90;;;;;;5086936;28;20629;-73
2023/11/11 11:37:01;;;;;;;1.13;1.03;;;7.40;98.90;;;;;;5087129;28;20210;-75
2023/11/11 11:39:32;;;;;;;1.23;1.03;;;7.40;97.70;;;;;;5086143;28;20689;-74
2023/11/11 11:42:10;;;;;;;0.80;0.73;;;7.50;97.30;;;;;;5086767;28;20639;-74
2023/11/11 11:44:37;;;;;;;0.88;0.88;;;7.60;97.70;;;;;;5086884;28;20628;-75
2023/11/11 11:47:06;;;;;;;0.90;0.90;;;7.60;96.60;;;;;;5086710;28;20205;-75
2023/11/11 11:49:34;;;;;;;0.77;0.70;;;7.70;95.10;;;;;;5086254;28;20628;-75
2023/11/11 11:52:01;;;;;;;1.60;1.20;;;7.50;94.60;;;;;;5078388;28;20195;-75
2023/11/11 11:54:28;;;;;;;1.70;1.30;;;7.60;95.20;;;;;;5086422;28;20207;-75
2023/11/11 11:57:03;;;;;;;1.03;0.93;;;7.70;95.20;;;;;;5085838;28;20629;-75
2023/11/11 11:59:31;;;;;;;0.83;0.83;;;7.80;95.00;;;;;;5086222;28;20635;-75
2023/11/11 12:01:58;;;;;;;0.77;0.77;;;7.80;94.80;;;;;;5086576;28;20625;-75
2023/11/11 12:04:26;;;;;;;1.50;0.83;;;7.80;94.40;;;;;;5086589;28;20674;-75
2023/11/11 12:06:53;;;;;;;0.83;0.80;;;7.90;94.70;;;;;;5086494;28;20625;-75
2023/11/11 12:09:20;;;;;;;1.00;1.00;;;7.90;93.10;;;;;;5077414;28;20625;-75
2023/11/11 12:11:48;;;;;;;1.50;1.40;;;7.80;93.10;;;;;;5086690;28;20670;-76
2023/11/11 12:14:17;;;;;;;1.73;1.30;;;7.80;93.60;;;;;;5086322;28;21068;-75
2023/11/11 12:16:47;;;;;;;1.60;1.37;;;7.90;93.30;;;;;;5086551;28;20730;-75
2023/11/11 12:19:16;;;;;;;1.13;0.93;;;8.10;94.50;;;;;;5085724;28;20628;-75
2023/11/11 12:21:47;;;;;;;4.33;1.80;;;8.10;94.20;;;;;;5085972;28;20635;-75
2023/11/11 12:24:15;;;;;;;1.10;1.00;;;8.10;92.90;;;;;;5086381;28;20852;-75
2023/11/11 12:26:43;;;;;;;0.60;0.53;;;7.90;92.10;;;;;;5086505;28;20948;-75
2023/11/11 12:29:11;;;;;;;0.95;0.82;;;7.90;92.60;;;;;;5085841;28;20668;-75
2023/11/11 12:31:45;;;;;;;0.50;0.50;;;7.90;92.40;;;;;;5086042;28;20208;-76
2023/11/11 12:34:12;;;;;;;1.70;1.60;;;7.90;93.00;;;;;;5085788;28;20632;-75
2023/11/11 12:36:39;;;;;;;0.80;0.70;;;8.00;93.00;;;;;;5086231;28;20629;-75
2023/11/11 12:39:09;;;;;;;0.77;0.70;;;8.10;93.20;;;;;;5085831;28;20686;-75
2023/11/11 12:41:37;;;;;;;1.30;1.20;;;8.20;92.50;;;;;;5086468;28;20712;-75
2023/11/11 12:44:05;;;;;;;0.40;0.40;;;8.10;93.10;;;;;;5086731;28;20781;-75
2023/11/11 12:46:32;;;;;;;0.90;0.90;;;8.20;92.90;;;;;;5086551;28;21250;-75
2023/11/11 12:49:07;;;;;;;1.87;1.47;;;8.20;92.40;;;;;;5079717;28;20738;-75
2023/11/11 12:51:34;;;;;;;0.97;0.90;;;8.20;92.30;;;;;;5086556;28;20617;-75
2023/11/11 12:54:01;;;;;;;1.07;0.90;;;8.30;91.70;;;;;;5089882;28;20718;-75
2023/11/11 12:56:29;;;;;;;1.43;1.33;;;8.40;91.50;;;;;;5089885;28;20617;-75
2023/11/11 12:59:07;;;;;;;0.73;0.73;;;8.40;91.70;;;;;;5089685;28;20982;-75
2023/11/11 13:01:34;;;;;;;1.27;1.10;;;8.30;91.60;;;;;;5089858;28;20629;-75